Chicago, IL

09:40 CDT dnia 28-sierpień-2015 (GMT -0500)
West Loop - Old St. Pats | | Change Station
CLOSE
Current Station
Stacja PWS
Location: Chicago, IL
n.p.m.: 548 ft
Najbliższa stacja pogodowa

Wysokość 548 ft 41.88 °N, 87.64 °W | Updated 22 seconds ago

przewaga chmur
przewaga chmur
72.0 ° F
Odczuwalna 75 ° F
Płn.
1.0
Wiatr zmienny Wiatr od PnZd
Gusts 1.0 mph

Dziś
Wysoka -- | Niska -- ° F
--% Prawdop. opadów
Wczoraj
Wysoka -- | Niska -- ° F
Precip. -- cali
6:11 AM 7:30 PM
Powiększający się Księżyc, 98% visible
Ciśnienie 30.13 cali
Widzialność 10.0 mil
chmury Niewiele 12000 ft
przewaga chmur 20000 ft
przewaga chmur 25000 ft
Odczucie gorąca 75 ° F
Punkt rosy 61 ° F
Wilgotność 69%
Opady deszczu 0.00 cali
grubość pokrywy śnieżnej Niedostępne.
UV 2 z 12
Pyłki 8.60 z 12
Jakość powietrza Niedostępne.
Flu Activity Niedostępne.
METAR KMDW 281353Z 21004KT 10SM FEW120 BKN200 BKN250 20/14 A3014 RMK AO2 SLP201 T02000144
Ciśnienie 30.13 cali
Widzialność 10.0 mil
chmury Niewiele 12000 ft
przewaga chmur 20000 ft
przewaga chmur 25000 ft
Odczucie gorąca 75 ° F
Punkt rosy 61 ° F
Wilgotność 69%
Opady deszczu 0.00 cali
grubość pokrywy śnieżnej Niedostępne.
UV 2 z 12
Pyłki 8.60 z 12
Jakość powietrza Niedostępne.
Flu Activity Niedostępne.
METAR KMDW 281353Z 21004KT 10SM FEW120 BKN200 BKN250 20/14 A3014 RMK AO2 SLP201 T02000144

10-Day Weather Forecast

×

Almanac

Astronomia

Aug. 28, 2015 Wschód Zachów
Aktualny czas
Zmierzch cywilny
Zmierzch żeglarski
świt/zmierzch astronomiczny
Księżyc
całkowite oświetlenie
Długość dnia
Tomorrow will be .
, % of the Moon is Illuminated

Dzisiejsze ekstrema

State Highs State Lows

Community

WunderPhotos

Upload Photos

1,850,387 zdjęcia zostały przesłane!

WunderBlogs® & News

Nearby

Jakość powietrza

  Jakość powietrza czynnik AQ Zanieczyszczenie
Not available.

Głębokość pokrywy śnieżnej

Station Depth n.p.m.

Aktywność sejsmiczna

Miejscowość Distance Mag. Time & Date
Minimum magnitude displayed is 2.5.

Temperatury wody na wybrzeżu

Miejsce Temperatura

Stations

Najbliższa stacja pogodowa

Lokalizacja stacji Temp. czynnik chłodzący wiatru Punkt rosy Wilgotność Wiatr Precip. Wysokość Uaktualniono Typ